sensor_id;sensor_type;location;lat;lon;timestamp;pressure;altitude;pressure_sealevel;temperature;humidity
77303;BME280;66363;49.828;7.856;2023-05-07T00:01:43;100151.97;;;13.68;82.06
77303;BME280;66363;49.828;7.856;2023-05-07T00:04:09;100160.00;;;13.56;82.34
77303;BME280;66363;49.828;7.856;2023-05-07T00:06:36;100150.19;;;13.57;82.33
77303;BME280;66363;49.828;7.856;2023-05-07T00:09:02;100152.47;;;13.62;81.87
77303;BME280;66363;49.828;7.856;2023-05-07T00:11:28;100149.09;;;13.59;82.19
77303;BME280;66363;49.828;7.856;2023-05-07T00:13:54;100155.78;;;13.54;82.72
77303;BME280;66363;49.828;7.856;2023-05-07T00:16:20;100150.00;;;13.49;82.68
77303;BME280;66363;49.828;7.856;2023-05-07T00:18:48;100148.88;;;13.51;82.56
77303;BME280;66363;49.828;7.856;2023-05-07T00:21:14;100142.13;;;13.47;82.78
77303;BME280;66363;49.828;7.856;2023-05-07T00:23:44;100143.72;;;13.39;83.12
77303;BME280;66363;49.828;7.856;2023-05-07T00:26:10;100138.88;;;13.44;82.52
77303;BME280;66363;49.828;7.856;2023-05-07T00:28:35;100134.03;;;13.38;82.92
77303;BME280;66363;49.828;7.856;2023-05-07T00:31:01;100140.34;;;13.25;83.23
77303;BME280;66363;49.828;7.856;2023-05-07T00:33:26;100140.22;;;13.27;83.13
77303;BME280;66363;49.828;7.856;2023-05-07T00:35:52;100138.44;;;13.16;83.40
77303;BME280;66363;49.828;7.856;2023-05-07T00:38:18;100125.81;;;13.07;83.88
77303;BME280;66363;49.828;7.856;2023-05-07T00:40:45;100126.81;;;13.06;83.78
77303;BME280;66363;49.828;7.856;2023-05-07T00:43:10;100122.13;;;12.99;83.87
77303;BME280;66363;49.828;7.856;2023-05-07T00:45:36;100119.78;;;13.05;83.86
77303;BME280;66363;49.828;7.856;2023-05-07T00:48:02;100124.75;;;13.10;84.13
77303;BME280;66363;49.828;7.856;2023-05-07T00:50:29;100129.22;;;13.09;83.46
77303;BME280;66363;49.828;7.856;2023-05-07T00:52:55;100125.09;;;13.05;83.62
77303;BME280;66363;49.828;7.856;2023-05-07T00:55:21;100128.53;;;12.96;84.28
77303;BME280;66363;49.828;7.856;2023-05-07T00:57:49;100132.28;;;12.94;84.02
77303;BME280;66363;49.828;7.856;2023-05-07T01:00:16;100122.72;;;12.91;84.84
77303;BME280;66363;49.828;7.856;2023-05-07T01:02:42;100128.88;;;12.80;84.87
77303;BME280;66363;49.828;7.856;2023-05-07T01:05:12;100132.53;;;12.79;85.26
77303;BME280;66363;49.828;7.856;2023-05-07T01:07:40;100135.66;;;12.73;85.63
77303;BME280;66363;49.828;7.856;2023-05-07T01:10:08;100121.91;;;12.68;85.69
77303;BME280;66363;49.828;7.856;2023-05-07T01:12:35;100122.63;;;12.59;86.22
77303;BME280;66363;49.828;7.856;2023-05-07T01:15:05;100121.75;;;12.58;86.38
77303;BME280;66363;49.828;7.856;2023-05-07T01:17:33;100127.81;;;12.49;86.39
77303;BME280;66363;49.828;7.856;2023-05-07T01:19:59;100127.69;;;12.40;87.09
77303;BME280;66363;49.828;7.856;2023-05-07T01:22:30;100120.31;;;12.32;87.49
77303;BME280;66363;49.828;7.856;2023-05-07T01:24:56;100112.19;;;12.34;86.92
77303;BME280;66363;49.828;7.856;2023-05-07T01:27:22;100107.22;;;12.29;87.66
77303;BME280;66363;49.828;7.856;2023-05-07T01:29:47;100110.63;;;12.20;87.42
77303;BME280;66363;49.828;7.856;2023-05-07T01:32:13;100117.25;;;12.26;87.78
77303;BME280;66363;49.828;7.856;2023-05-07T01:34:41;100116.06;;;12.18;87.94
77303;BME280;66363;49.828;7.856;2023-05-07T01:37:08;100118.13;;;12.15;88.68
77303;BME280;66363;49.828;7.856;2023-05-07T01:39:37;100114.94;;;12.10;88.43
77303;BME280;66363;49.828;7.856;2023-05-07T01:42:04;100119.56;;;12.19;87.75
77303;BME280;66363;49.828;7.856;2023-05-07T01:44:30;100113.50;;;12.06;88.22
77303;BME280;66363;49.828;7.856;2023-05-07T01:46:57;100113.09;;;11.99;88.88
77303;BME280;66363;49.828;7.856;2023-05-07T01:49:23;100118.81;;;12.06;87.96
77303;BME280;66363;49.828;7.856;2023-05-07T01:51:50;100111.28;;;12.00;87.87
77303;BME280;66363;49.828;7.856;2023-05-07T01:54:16;100111.53;;;11.97;87.60
77303;BME280;66363;49.828;7.856;2023-05-07T01:56:43;100112.25;;;11.99;87.35
77303;BME280;66363;49.828;7.856;2023-05-07T01:59:11;100117.69;;;11.97;87.38
77303;BME280;66363;49.828;7.856;2023-05-07T02:01:37;100118.06;;;11.93;87.27
77303;BME280;66363;49.828;7.856;2023-05-07T02:04:03;100112.47;;;11.84;88.75
77303;BME280;66363;49.828;7.856;2023-05-07T02:06:29;100121.41;;;11.83;88.66
77303;BME280;66363;49.828;7.856;2023-05-07T02:08:54;100125.88;;;11.83;88.24
77303;BME280;66363;49.828;7.856;2023-05-07T02:11:20;100119.59;;;11.84;88.08
77303;BME280;66363;49.828;7.856;2023-05-07T02:13:47;100120.78;;;11.80;88.70
77303;BME280;66363;49.828;7.856;2023-05-07T02:16:12;100123.09;;;11.84;87.27
77303;BME280;66363;49.828;7.856;2023-05-07T02:18:38;100116.81;;;11.85;87.69
77303;BME280;66363;49.828;7.856;2023-05-07T02:21:04;100124.91;;;11.84;87.87
77303;BME280;66363;49.828;7.856;2023-05-07T02:23:29;100118.03;;;11.81;88.48
77303;BME280;66363;49.828;7.856;2023-05-07T02:25:55;100126.97;;;11.80;88.59
77303;BME280;66363;49.828;7.856;2023-05-07T02:28:20;100124.00;;;11.72;88.20
77303;BME280;66363;49.828;7.856;2023-05-07T02:30:47;100125.06;;;11.70;88.94
77303;BME280;66363;49.828;7.856;2023-05-07T02:33:13;100124.09;;;11.71;88.60
77303;BME280;66363;49.828;7.856;2023-05-07T02:35:39;100124.72;;;11.74;88.19
77303;BME280;66363;49.828;7.856;2023-05-07T02:38:04;100128.66;;;11.81;88.04
77303;BME280;66363;49.828;7.856;2023-05-07T02:40:30;100125.16;;;11.81;88.71
77303;BME280;66363;49.828;7.856;2023-05-07T02:42:56;100127.94;;;11.79;88.09
77303;BME280;66363;49.828;7.856;2023-05-07T02:45:21;100128.78;;;11.80;88.46
77303;BME280;66363;49.828;7.856;2023-05-07T02:47:48;100133.63;;;11.86;87.46
77303;BME280;66363;49.828;7.856;2023-05-07T02:50:14;100124.81;;;11.85;86.99
77303;BME280;66363;49.828;7.856;2023-05-07T02:52:39;100123.72;;;11.88;87.43
77303;BME280;66363;49.828;7.856;2023-05-07T02:55:06;100124.56;;;11.88;87.92
77303;BME280;66363;49.828;7.856;2023-05-07T02:57:32;100128.19;;;11.87;87.95
77303;BME280;66363;49.828;7.856;2023-05-07T02:59:58;100129.16;;;11.86;87.91
77303;BME280;66363;49.828;7.856;2023-05-07T03:02:23;100131.44;;;11.80;88.06
77303;BME280;66363;49.828;7.856;2023-05-07T03:04:50;100115.25;;;11.83;87.87
77303;BME280;66363;49.828;7.856;2023-05-07T03:07:16;100114.84;;;11.76;87.60
77303;BME280;66363;49.828;7.856;2023-05-07T03:09:41;100117.25;;;11.68;88.07
77303;BME280;66363;49.828;7.856;2023-05-07T03:12:07;100106.84;;;11.65;88.18
77303;BME280;66363;49.828;7.856;2023-05-07T03:14:33;100100.91;;;11.62;88.09
77303;BME280;66363;49.828;7.856;2023-05-07T03:16:58;100095.06;;;11.56;88.23
77303;BME280;66363;49.828;7.856;2023-05-07T03:19:24;100106.56;;;11.57;88.38
77303;BME280;66363;49.828;7.856;2023-05-07T03:21:51;100099.31;;;11.59;87.56
77303;BME280;66363;49.828;7.856;2023-05-07T03:24:16;100095.00;;;11.45;88.34
77303;BME280;66363;49.828;7.856;2023-05-07T03:26:42;100095.97;;;11.44;88.71
77303;BME280;66363;49.828;7.856;2023-05-07T03:29:08;100091.41;;;11.46;88.44
77303;BME280;66363;49.828;7.856;2023-05-07T03:31:33;100093.50;;;11.54;88.56
77303;BME280;66363;49.828;7.856;2023-05-07T03:33:59;100092.63;;;11.42;88.13
77303;BME280;66363;49.828;7.856;2023-05-07T03:36:25;100090.66;;;11.44;89.20
77303;BME280;66363;49.828;7.856;2023-05-07T03:38:52;100087.03;;;11.45;88.61
77303;BME280;66363;49.828;7.856;2023-05-07T03:41:17;100089.25;;;11.51;88.67
77303;BME280;66363;49.828;7.856;2023-05-07T03:43:43;100092.25;;;11.47;88.17
77303;BME280;66363;49.828;7.856;2023-05-07T03:46:08;100087.63;;;11.38;88.05
77303;BME280;66363;49.828;7.856;2023-05-07T03:48:34;100092.22;;;11.36;88.79
77303;BME280;66363;49.828;7.856;2023-05-07T03:51:00;100105.38;;;11.37;88.06
77303;BME280;66363;49.828;7.856;2023-05-07T03:53:25;100100.75;;;11.28;88.74
77303;BME280;66363;49.828;7.856;2023-05-07T03:55:52;100109.56;;;11.29;88.96
77303;BME280;66363;49.828;7.856;2023-05-07T03:58:18;100116.78;;;11.27;88.82
77303;BME280;66363;49.828;7.856;2023-05-07T04:00:44;100114.75;;;11.30;88.39
77303;BME280;66363;49.828;7.856;2023-05-07T04:03:09;100118.38;;;11.29;89.18
77303;BME280;66363;49.828;7.856;2023-05-07T04:05:35;100114.34;;;11.23;89.02
77303;BME280;66363;49.828;7.856;2023-05-07T04:08:01;100111.91;;;11.20;88.99
77303;BME280;66363;49.828;7.856;2023-05-07T04:10:27;100116.84;;;11.14;89.55
77303;BME280;66363;49.828;7.856;2023-05-07T04:12:54;100116.97;;;11.12;89.54
77303;BME280;66363;49.828;7.856;2023-05-07T04:15:19;100123.13;;;11.13;88.95
77303;BME280;66363;49.828;7.856;2023-05-07T04:17:45;100116.78;;;11.03;89.84
77303;BME280;66363;49.828;7.856;2023-05-07T04:20:15;100121.69;;;10.96;89.99
77303;BME280;66363;49.828;7.856;2023-05-07T04:22:41;100124.34;;;10.96;89.89
77303;BME280;66363;49.828;7.856;2023-05-07T04:25:08;100120.94;;;10.94;90.08
77303;BME280;66363;49.828;7.856;2023-05-07T04:27:34;100117.63;;;11.03;89.26
77303;BME280;66363;49.828;7.856;2023-05-07T04:30:01;100115.94;;;11.02;89.98
77303;BME280;66363;49.828;7.856;2023-05-07T04:32:27;100111.78;;;10.98;89.43
77303;BME280;66363;49.828;7.856;2023-05-07T04:34:53;100118.81;;;10.99;89.84
77303;BME280;66363;49.828;7.856;2023-05-07T04:37:18;100108.50;;;10.95;89.53
77303;BME280;66363;49.828;7.856;2023-05-07T04:39:44;100122.75;;;10.94;90.18
77303;BME280;66363;49.828;7.856;2023-05-07T04:42:14;100124.22;;;10.98;89.86
77303;BME280;66363;49.828;7.856;2023-05-07T04:44:40;100125.28;;;10.95;89.85
77303;BME280;66363;49.828;7.856;2023-05-07T04:47:07;100122.41;;;10.98;89.61
77303;BME280;66363;49.828;7.856;2023-05-07T04:49:32;100119.44;;;11.03;89.52
77303;BME280;66363;49.828;7.856;2023-05-07T04:51:58;100120.72;;;10.97;89.23
77303;BME280;66363;49.828;7.856;2023-05-07T04:54:23;100135.16;;;11.06;89.11
77303;BME280;66363;49.828;7.856;2023-05-07T04:56:49;100127.06;;;11.07;88.63
77303;BME280;66363;49.828;7.856;2023-05-07T04:59:14;100138.31;;;11.11;88.52
77303;BME280;66363;49.828;7.856;2023-05-07T05:01:40;100145.22;;;11.13;88.49
77303;BME280;66363;49.828;7.856;2023-05-07T05:04:07;100145.50;;;11.21;87.94
77303;BME280;66363;49.828;7.856;2023-05-07T05:06:33;100147.81;;;11.26;88.26
77303;BME280;66363;49.828;7.856;2023-05-07T05:08:58;100147.94;;;11.48;87.46
77303;BME280;66363;49.828;7.856;2023-05-07T05:11:24;100150.78;;;11.58;86.21
77303;BME280;66363;49.828;7.856;2023-05-07T05:13:49;100155.31;;;11.69;85.81
77303;BME280;66363;49.828;7.856;2023-05-07T05:16:15;100148.66;;;11.74;86.10
77303;BME280;66363;49.828;7.856;2023-05-07T05:18:41;100158.75;;;11.82;85.48
77303;BME280;66363;49.828;7.856;2023-05-07T05:21:08;100153.97;;;11.98;85.54
77303;BME280;66363;49.828;7.856;2023-05-07T05:23:33;100155.59;;;12.12;84.28
77303;BME280;66363;49.828;7.856;2023-05-07T05:25:59;100162.59;;;12.24;83.46
77303;BME280;66363;49.828;7.856;2023-05-07T05:28:25;100166.00;;;12.26;83.70
77303;BME280;66363;49.828;7.856;2023-05-07T05:30:50;100169.16;;;12.31;84.07
77303;BME280;66363;49.828;7.856;2023-05-07T05:33:16;100178.59;;;12.35;82.76
77303;BME280;66363;49.828;7.856;2023-05-07T05:35:42;100169.03;;;12.33;83.20
77303;BME280;66363;49.828;7.856;2023-05-07T05:38:09;100169.53;;;12.38;83.01
77303;BME280;66363;49.828;7.856;2023-05-07T05:40:34;100174.16;;;12.47;82.54
77303;BME280;66363;49.828;7.856;2023-05-07T05:43:00;100164.09;;;12.50;82.84
77303;BME280;66363;49.828;7.856;2023-05-07T05:45:26;100162.44;;;12.61;82.13
77303;BME280;66363;49.828;7.856;2023-05-07T05:47:51;100164.38;;;12.70;82.50
77303;BME280;66363;49.828;7.856;2023-05-07T05:50:17;100166.53;;;12.76;82.41
77303;BME280;66363;49.828;7.856;2023-05-07T05:52:43;100164.72;;;12.87;81.47
77303;BME280;66363;49.828;7.856;2023-05-07T05:55:10;100159.88;;;12.93;81.53
77303;BME280;66363;49.828;7.856;2023-05-07T05:57:35;100161.47;;;13.17;80.22
77303;BME280;66363;49.828;7.856;2023-05-07T06:00:01;100154.03;;;13.32;79.32
77303;BME280;66363;49.828;7.856;2023-05-07T06:02:27;100153.75;;;13.46;79.33
77303;BME280;66363;49.828;7.856;2023-05-07T06:04:54;100153.09;;;13.54;79.21
77303;BME280;66363;49.828;7.856;2023-05-07T06:07:20;100149.44;;;13.66;80.08
77303;BME280;66363;49.828;7.856;2023-05-07T06:09:46;100145.34;;;13.83;78.84
77303;BME280;66363;49.828;7.856;2023-05-07T06:12:13;100149.34;;;13.88;78.34
77303;BME280;66363;49.828;7.856;2023-05-07T06:14:38;100153.84;;;14.09;78.03
77303;BME280;66363;49.828;7.856;2023-05-07T06:17:04;100153.97;;;14.28;76.83
77303;BME280;66363;49.828;7.856;2023-05-07T06:19:29;100165.38;;;14.51;75.97
77303;BME280;66363;49.828;7.856;2023-05-07T06:21:55;100154.88;;;14.59;75.79
77303;BME280;66363;49.828;7.856;2023-05-07T06:24:20;100164.19;;;14.65;75.72
77303;BME280;66363;49.828;7.856;2023-05-07T06:26:46;100166.72;;;14.66;75.23
77303;BME280;66363;49.828;7.856;2023-05-07T06:29:13;100165.06;;;14.75;75.17
77303;BME280;66363;49.828;7.856;2023-05-07T06:31:39;100168.03;;;14.81;75.25
77303;BME280;66363;49.828;7.856;2023-05-07T06:34:05;100168.22;;;14.89;75.44
77303;BME280;66363;49.828;7.856;2023-05-07T06:36:30;100166.00;;;14.94;74.80
77303;BME280;66363;49.828;7.856;2023-05-07T06:38:56;100171.91;;;14.98;74.34
77303;BME280;66363;49.828;7.856;2023-05-07T06:41:21;100168.84;;;15.03;73.92
77303;BME280;66363;49.828;7.856;2023-05-07T06:43:47;100176.16;;;15.01;74.41
77303;BME280;66363;49.828;7.856;2023-05-07T06:46:14;100170.94;;;14.99;74.83
77303;BME280;66363;49.828;7.856;2023-05-07T06:48:40;100167.72;;;15.05;74.71
77303;BME280;66363;49.828;7.856;2023-05-07T06:51:05;100171.53;;;15.12;74.54
77303;BME280;66363;49.828;7.856;2023-05-07T06:53:31;100169.75;;;15.22;74.43
77303;BME280;66363;49.828;7.856;2023-05-07T06:55:56;100177.09;;;15.40;73.68
77303;BME280;66363;49.828;7.856;2023-05-07T06:58:22;100173.16;;;15.44;73.51
77303;BME280;66363;49.828;7.856;2023-05-07T07:00:47;100180.78;;;15.48;73.04
77303;BME280;66363;49.828;7.856;2023-05-07T07:03:14;100174.78;;;15.56;73.21
77303;BME280;66363;49.828;7.856;2023-05-07T07:05:40;100179.53;;;15.62;73.76
77303;BME280;66363;49.828;7.856;2023-05-07T07:08:06;100187.16;;;15.67;73.23
77303;BME280;66363;49.828;7.856;2023-05-07T07:10:31;100180.69;;;15.69;72.54
77303;BME280;66363;49.828;7.856;2023-05-07T07:12:57;100178.59;;;15.73;72.98
77303;BME280;66363;49.828;7.856;2023-05-07T07:15:23;100182.66;;;15.86;72.05
77303;BME280;66363;49.828;7.856;2023-05-07T07:17:48;100184.66;;;15.84;71.19
77303;BME280;66363;49.828;7.856;2023-05-07T07:20:15;100187.59;;;15.91;71.00
77303;BME280;66363;49.828;7.856;2023-05-07T07:22:41;100192.53;;;15.95;71.74
77303;BME280;66363;49.828;7.856;2023-05-07T07:25:07;100179.56;;;16.01;71.75
77303;BME280;66363;49.828;7.856;2023-05-07T07:27:33;100179.13;;;16.15;71.31
77303;BME280;66363;49.828;7.856;2023-05-07T07:29:59;100179.41;;;16.31;70.50
77303;BME280;66363;49.828;7.856;2023-05-07T07:32:24;100177.16;;;16.36;70.35
77303;BME280;66363;49.828;7.856;2023-05-07T07:34:50;100188.50;;;16.57;69.37
77303;BME280;66363;49.828;7.856;2023-05-07T07:37:17;100192.72;;;16.70;69.32
77303;BME280;66363;49.828;7.856;2023-05-07T07:39:43;100187.63;;;16.86;69.25
77303;BME280;66363;49.828;7.856;2023-05-07T07:42:08;100184.16;;;16.93;68.57
77303;BME280;66363;49.828;7.856;2023-05-07T07:44:34;100183.88;;;17.24;67.67
77303;BME280;66363;49.828;7.856;2023-05-07T07:46:59;100185.50;;;17.62;65.84
77303;BME280;66363;49.828;7.856;2023-05-07T07:49:25;100186.06;;;17.83;64.20
77303;BME280;66363;49.828;7.856;2023-05-07T07:51:50;100187.22;;;18.16;63.73
77303;BME280;66363;49.828;7.856;2023-05-07T07:54:17;100181.81;;;18.34;62.42
77303;BME280;66363;49.828;7.856;2023-05-07T07:56:43;100180.22;;;18.49;61.38
77303;BME280;66363;49.828;7.856;2023-05-07T07:59:09;100185.06;;;18.89;60.97
77303;BME280;66363;49.828;7.856;2023-05-07T08:01:34;100184.88;;;18.39;60.11
77303;BME280;66363;49.828;7.856;2023-05-07T08:04:00;100194.28;;;18.87;60.37
77303;BME280;66363;49.828;7.856;2023-05-07T08:06:26;100184.31;;;19.13;59.60
77303;BME280;66363;49.828;7.856;2023-05-07T08:08:51;100192.81;;;18.92;59.53
77303;BME280;66363;49.828;7.856;2023-05-07T08:11:18;100183.69;;;19.27;58.55
77303;BME280;66363;49.828;7.856;2023-05-07T08:13:43;100184.94;;;19.49;57.35
77303;BME280;66363;49.828;7.856;2023-05-07T08:16:09;100193.72;;;19.51;58.30
77303;BME280;66363;49.828;7.856;2023-05-07T08:18:34;100194.28;;;19.63;57.77
77303;BME280;66363;49.828;7.856;2023-05-07T08:21:00;100193.44;;;19.62;56.70
77303;BME280;66363;49.828;7.856;2023-05-07T08:23:26;100190.25;;;19.67;56.63
77303;BME280;66363;49.828;7.856;2023-05-07T08:25:51;100193.78;;;19.84;56.85
77303;BME280;66363;49.828;7.856;2023-05-07T08:28:18;100190.63;;;19.96;56.57
77303;BME280;66363;49.828;7.856;2023-05-07T08:30:44;100198.38;;;20.24;54.78
77303;BME280;66363;49.828;7.856;2023-05-07T08:33:09;100203.59;;;20.58;54.06
77303;BME280;66363;49.828;7.856;2023-05-07T08:35:35;100206.78;;;20.70;54.36
77303;BME280;66363;49.828;7.856;2023-05-07T08:38:00;100209.00;;;20.58;54.01
77303;BME280;66363;49.828;7.856;2023-05-07T08:40:26;100204.13;;;20.45;54.07
77303;BME280;66363;49.828;7.856;2023-05-07T08:42:53;100206.78;;;20.61;54.24
77303;BME280;66363;49.828;7.856;2023-05-07T08:45:20;100209.44;;;20.86;53.94
77303;BME280;66363;49.828;7.856;2023-05-07T08:47:47;100210.28;;;20.86;52.92
77303;BME280;66363;49.828;7.856;2023-05-07T08:50:15;100209.31;;;20.71;54.14
77303;BME280;66363;49.828;7.856;2023-05-07T08:52:41;100204.47;;;20.42;54.04
77303;BME280;66363;49.828;7.856;2023-05-07T08:55:07;100211.66;;;20.09;55.61
77303;BME280;66363;49.828;7.856;2023-05-07T08:57:33;100210.19;;;20.23;55.57
77303;BME280;66363;49.828;7.856;2023-05-07T08:59:59;100213.19;;;20.28;55.46
77303;BME280;66363;49.828;7.856;2023-05-07T09:02:26;100206.47;;;20.24;55.26
77303;BME280;66363;49.828;7.856;2023-05-07T09:04:51;100204.94;;;20.13;56.20
77303;BME280;66363;49.828;7.856;2023-05-07T09:07:17;100207.47;;;19.98;56.44
77303;BME280;66363;49.828;7.856;2023-05-07T09:09:44;100198.38;;;20.24;57.51
77303;BME280;66363;49.828;7.856;2023-05-07T09:12:09;100202.09;;;20.39;56.60
77303;BME280;66363;49.828;7.856;2023-05-07T09:14:35;100199.75;;;20.52;56.76
77303;BME280;66363;49.828;7.856;2023-05-07T09:17:01;100200.84;;;20.82;55.67
77303;BME280;66363;49.828;7.856;2023-05-07T09:19:27;100192.56;;;21.00;54.68
77303;BME280;66363;49.828;7.856;2023-05-07T09:21:58;100191.59;;;21.32;51.23
77303;BME280;66363;49.828;7.856;2023-05-07T09:24:24;100188.94;;;21.24;50.92
77303;BME280;66363;49.828;7.856;2023-05-07T09:26:49;100192.94;;;21.90;50.20
77303;BME280;66363;49.828;7.856;2023-05-07T09:29:15;100199.13;;;22.44;46.95
77303;BME280;66363;49.828;7.856;2023-05-07T09:31:41;100192.25;;;23.09;46.79
77303;BME280;66363;49.828;7.856;2023-05-07T09:34:07;100188.09;;;23.13;45.28
77303;BME280;66363;49.828;7.856;2023-05-07T09:36:34;100189.06;;;23.71;44.39
77303;BME280;66363;49.828;7.856;2023-05-07T09:39:00;100185.88;;;24.03;43.44
77303;BME280;66363;49.828;7.856;2023-05-07T09:41:26;100195.03;;;24.02;42.59
77303;BME280;66363;49.828;7.856;2023-05-07T09:43:53;100198.09;;;24.35;42.41
77303;BME280;66363;49.828;7.856;2023-05-07T09:46:24;100190.53;;;24.58;40.66
77303;BME280;66363;49.828;7.856;2023-05-07T09:48:52;100184.47;;;24.84;41.34
77303;BME280;66363;49.828;7.856;2023-05-07T09:51:23;100177.22;;;25.32;41.62
77303;BME280;66363;49.828;7.856;2023-05-07T09:53:52;100180.59;;;26.28;39.75
77303;BME280;66363;49.828;7.856;2023-05-07T09:56:19;100184.34;;;26.87;37.92
77303;BME280;66363;49.828;7.856;2023-05-07T09:58:44;100176.19;;;26.93;37.44
77303;BME280;66363;49.828;7.856;2023-05-07T10:01:12;100174.47;;;27.57;36.50
77303;BME280;66363;49.828;7.856;2023-05-07T10:03:39;100176.97;;;27.14;35.86
77303;BME280;66363;49.828;7.856;2023-05-07T10:06:07;100170.19;;;27.81;36.69
77303;BME280;66363;49.828;7.856;2023-05-07T10:08:33;100173.13;;;28.11;34.97
77303;BME280;66363;49.828;7.856;2023-05-07T10:11:03;100175.75;;;27.61;37.62
77303;BME280;66363;49.828;7.856;2023-05-07T10:13:29;100176.88;;;28.16;34.06
77303;BME280;66363;49.828;7.856;2023-05-07T10:15:55;100177.66;;;28.30;34.78
77303;BME280;66363;49.828;7.856;2023-05-07T10:18:21;100179.84;;;28.08;34.19
77303;BME280;66363;49.828;7.856;2023-05-07T10:20:48;100178.47;;;27.99;35.21
77303;BME280;66363;49.828;7.856;2023-05-07T10:23:20;100178.31;;;27.87;34.28
77303;BME280;66363;49.828;7.856;2023-05-07T10:25:49;100184.94;;;27.09;36.84
77303;BME280;66363;49.828;7.856;2023-05-07T10:28:17;100177.19;;;27.12;36.11
77303;BME280;66363;49.828;7.856;2023-05-07T10:30:55;100181.06;;;27.43;36.74
77303;BME280;66363;49.828;7.856;2023-05-07T10:33:26;100177.91;;;26.61;37.72
77303;BME280;66363;49.828;7.856;2023-05-07T10:35:56;100178.97;;;26.47;37.53
77303;BME280;66363;49.828;7.856;2023-05-07T10:38:22;100171.84;;;26.33;38.42
77303;BME280;66363;49.828;7.856;2023-05-07T10:40:48;100164.13;;;26.50;36.82
77303;BME280;66363;49.828;7.856;2023-05-07T10:43:17;100159.22;;;25.99;39.23
77303;BME280;66363;49.828;7.856;2023-05-07T10:45:42;100159.03;;;26.00;39.35
77303;BME280;66363;49.828;7.856;2023-05-07T10:48:10;100149.78;;;25.75;41.29
77303;BME280;66363;49.828;7.856;2023-05-07T10:50:36;100154.88;;;26.31;38.97
77303;BME280;66363;49.828;7.856;2023-05-07T10:53:24;100161.13;;;26.12;38.38
77303;BME280;66363;49.828;7.856;2023-05-07T10:55:51;100155.03;;;25.83;39.60
77303;BME280;66363;49.828;7.856;2023-05-07T10:58:25;100148.22;;;25.53;39.66
77303;BME280;66363;49.828;7.856;2023-05-07T11:00:55;100156.94;;;25.28;40.11
77303;BME280;66363;49.828;7.856;2023-05-07T11:03:21;100162.94;;;24.83;41.53
77303;BME280;66363;49.828;7.856;2023-05-07T11:05:47;100172.22;;;24.95;41.15
77303;BME280;66363;49.828;7.856;2023-05-07T11:08:12;100164.25;;;25.28;41.09
77303;BME280;66363;49.828;7.856;2023-05-07T11:10:48;100167.59;;;25.30;40.74
77303;BME280;66363;49.828;7.856;2023-05-07T11:13:14;100159.59;;;25.63;39.53
77303;BME280;66363;49.828;7.856;2023-05-07T11:15:46;100155.88;;;25.90;39.95
77303;BME280;66363;49.828;7.856;2023-05-07T11:18:14;100159.19;;;25.66;39.89
77303;BME280;66363;49.828;7.856;2023-05-07T11:20:54;100155.25;;;25.82;40.46
77303;BME280;66363;49.828;7.856;2023-05-07T11:23:56;100159.88;;;26.08;39.32
77303;BME280;66363;49.828;7.856;2023-05-07T11:26:25;100162.81;;;26.26;38.11
77303;BME280;66363;49.828;7.856;2023-05-07T11:28:51;100162.81;;;26.06;39.05
77303;BME280;66363;49.828;7.856;2023-05-07T11:31:23;100163.69;;;26.40;39.06
77303;BME280;66363;49.828;7.856;2023-05-07T11:33:49;100149.59;;;26.95;36.57
77303;BME280;66363;49.828;7.856;2023-05-07T11:36:15;100140.06;;;27.69;36.83
77303;BME280;66363;49.828;7.856;2023-05-07T11:38:41;100141.16;;;27.61;36.43
77303;BME280;66363;49.828;7.856;2023-05-07T11:41:07;100145.59;;;27.49;38.09
77303;BME280;66363;49.828;7.856;2023-05-07T11:43:33;100137.78;;;27.97;35.31
77303;BME280;66363;49.828;7.856;2023-05-07T11:46:05;100140.25;;;28.55;33.75
77303;BME280;66363;49.828;7.856;2023-05-07T11:48:33;100138.13;;;28.82;32.77
77303;BME280;66363;49.828;7.856;2023-05-07T11:51:00;100131.94;;;28.19;34.53
77303;BME280;66363;49.828;7.856;2023-05-07T11:53:27;100146.56;;;27.99;35.31
77303;BME280;66363;49.828;7.856;2023-05-07T11:55:53;100142.59;;;28.52;32.80
77303;BME280;66363;49.828;7.856;2023-05-07T11:58:21;100139.47;;;30.29;31.51
77303;BME280;66363;49.828;7.856;2023-05-07T12:00:49;100132.03;;;31.52;29.48
77303;BME280;66363;49.828;7.856;2023-05-07T12:03:17;100131.88;;;30.78;29.59
77303;BME280;66363;49.828;7.856;2023-05-07T12:05:45;100130.00;;;31.19;28.33
77303;BME280;66363;49.828;7.856;2023-05-07T12:08:14;100127.22;;;30.79;29.77
77303;BME280;66363;49.828;7.856;2023-05-07T12:10:40;100115.00;;;29.63;31.12
77303;BME280;66363;49.828;7.856;2023-05-07T12:13:14;100129.00;;;29.36;31.52
77303;BME280;66363;49.828;7.856;2023-05-07T12:15:39;100126.59;;;31.12;30.20
77303;BME280;66363;49.828;7.856;2023-05-07T12:18:05;100127.34;;;32.59;26.76
77303;BME280;66363;49.828;7.856;2023-05-07T12:20:31;100125.50;;;33.03;27.53
77303;BME280;66363;49.828;7.856;2023-05-07T12:22:58;100118.09;;;31.82;28.76
77303;BME280;66363;49.828;7.856;2023-05-07T12:25:24;100124.22;;;30.68;30.07
77303;BME280;66363;49.828;7.856;2023-05-07T12:27:51;100131.94;;;29.23;32.33
77303;BME280;66363;49.828;7.856;2023-05-07T12:30:17;100128.00;;;29.01;33.56
77303;BME280;66363;49.828;7.856;2023-05-07T12:32:45;100126.97;;;29.50;31.41
77303;BME280;66363;49.828;7.856;2023-05-07T12:35:10;100123.19;;;28.78;31.89
77303;BME280;66363;49.828;7.856;2023-05-07T12:37:36;100122.00;;;28.31;32.62
77303;BME280;66363;49.828;7.856;2023-05-07T12:40:08;100123.69;;;28.32;33.70
77303;BME280;66363;49.828;7.856;2023-05-07T12:42:36;100123.44;;;28.77;33.57
77303;BME280;66363;49.828;7.856;2023-05-07T12:45:08;100122.25;;;29.09;33.70
77303;BME280;66363;49.828;7.856;2023-05-07T12:47:34;100123.25;;;30.16;31.38